Time;durP1;ratioP1;P1;durP2;ratioP2;P2;SDS_P1;SDS_P2;PMS_P1;PMS_P2;Temp;Humidity;BMP_temperature;BMP_pressure;BME280_temperature;BME280_humidity;BME280_pressure;Samples;Min_cycle;Max_cycle;Signal;HPM_P1;HPM_P2
2022/12/07 00:00:17;;;;;;;58.58;27.33;;;;;;;;;;5076417;28;20114;-79
2022/12/07 00:02:43;;;;;;;62.67;27.30;;;;;;;;;;5096059;28;20036;-79
2022/12/07 00:05:08;;;;;;;62.90;26.75;;;;;;;;;;5069285;28;20028;-79
2022/12/07 00:07:33;;;;;;;63.20;27.92;;;;;;;;;;5075654;28;20448;-78
2022/12/07 00:09:59;;;;;;;67.68;29.98;;;;;;;;;;5094340;28;20503;-79
2022/12/07 00:12:24;;;;;;;76.95;31.23;;;;;;;;;;5076317;28;20115;-79
2022/12/07 00:14:50;;;;;;;67.40;30.15;;;;;;;;;;5093996;28;20464;-79
2022/12/07 00:17:15;;;;;;;66.00;30.55;;;;;;;;;;5075743;28;20043;-79
2022/12/07 00:19:41;;;;;;;72.55;30.33;;;;;;;;;;5076173;28;20032;-79
2022/12/07 00:22:06;;;;;;;71.05;31.75;;;;;;;;;;5075928;28;20457;-78
2022/12/07 00:24:31;;;;;;;71.15;29.88;;;;;;;;;;5080251;28;20051;-79
2022/12/07 00:26:57;;;;;;;65.35;29.83;;;;;;;;;;5078872;28;20397;-78
2022/12/07 00:29:23;;;;;;;72.60;31.40;;;;;;;;;;5076004;28;20093;-79
2022/12/07 00:31:48;;;;;;;72.25;30.27;;;;;;;;;;5076158;28;20272;-79
2022/12/07 00:34:19;;;;;;;70.85;29.80;;;;;;;;;;5060163;28;20028;-79
2022/12/07 00:36:44;;;;;;;;;;;;;;;;;;5080071;28;20111;-79
2022/12/07 00:39:09;;;;;;;72.50;29.70;;;;;;;;;;5098699;28;20311;-80
2022/12/07 00:41:35;;;;;;;76.63;32.00;;;;;;;;;;5097817;28;20438;-79
2022/12/07 00:44:00;;;;;;;78.40;32.10;;;;;;;;;;5083539;28;20481;-79
2022/12/07 00:46:26;;;;;;;89.22;33.80;;;;;;;;;;5110680;28;20437;-79
2022/12/07 00:48:51;;;;;;;83.63;32.78;;;;;;;;;;5079924;28;20043;-79
2022/12/07 00:51:18;;;;;;;83.13;31.55;;;;;;;;;;5109178;28;20050;-79
2022/12/07 00:53:43;;;;;;;83.72;33.13;;;;;;;;;;5068336;28;20031;-79
2022/12/07 00:56:11;;;;;;;78.78;31.83;;;;;;;;;;5045921;28;20105;-78
2022/12/07 00:58:37;;;;;;;77.05;33.13;;;;;;;;;;5046011;28;20032;-78
2022/12/07 01:01:03;;;;;;;81.88;33.53;;;;;;;;;;5062583;28;20047;-80
2022/12/07 01:03:28;;;;;;;80.90;32.13;;;;;;;;;;5079360;28;20468;-78
2022/12/07 01:05:54;;;;;;;78.43;31.17;;;;;;;;;;5082135;28;20126;-78
2022/12/07 01:08:20;;;;;;;82.60;32.35;;;;;;;;;;5046289;28;20453;-79
2022/12/07 01:10:46;;;;;;;80.82;33.42;;;;;;;;;;5062948;28;20032;-79
2022/12/07 01:13:12;;;;;;;74.13;30.17;;;;;;;;;;5097774;28;20177;-79
2022/12/07 01:15:44;;;;;;;84.57;31.98;;;;;;;;;;5045769;28;20442;-79
2022/12/07 01:18:10;;;;;;;81.53;31.35;;;;;;;;;;5078900;28;20035;-80
2022/12/07 01:20:36;;;;;;;79.05;30.10;;;;;;;;;;5062266;28;20028;-79
2022/12/07 01:23:01;;;;;;;79.25;31.02;;;;;;;;;;5045777;28;20032;-78
2022/12/07 01:25:27;;;;;;;74.38;29.60;;;;;;;;;;5079096;28;20369;-79
2022/12/07 01:27:52;;;;;;;79.03;30.40;;;;;;;;;;5087460;28;20040;-79
2022/12/07 01:30:17;;;;;;;90.63;31.98;;;;;;;;;;5078964;28;20024;-79
2022/12/07 01:32:43;;;;;;;82.88;31.95;;;;;;;;;;5096721;28;20032;-79
2022/12/07 01:35:08;;;;;;;93.57;33.90;;;;;;;;;;5096600;28;20039;-79
2022/12/07 01:37:35;;;;;;;86.20;32.67;;;;;;;;;;5062038;28;20427;-79
2022/12/07 01:40:01;;;;;;;84.43;31.90;;;;;;;;;;5061990;28;20081;-79
2022/12/07 01:42:26;;;;;;;83.45;30.85;;;;;;;;;;5078500;28;20024;-79
2022/12/07 01:45:29;;;;;;;92.88;32.58;;;;;;;;;;5061872;28;20028;-79
2022/12/07 01:47:55;;;;;;;76.97;30.40;;;;;;;;;;5099602;28;20032;-79
2022/12/07 01:50:21;;;;;;;78.03;30.80;;;;;;;;;;5065458;28;20024;-80
2022/12/07 01:52:48;;;;;;;80.13;30.48;;;;;;;;;;5061678;28;20477;-80
2022/12/07 01:55:15;;;;;;;77.97;31.27;;;;;;;;;;5061974;28;20448;-80
2022/12/07 01:57:43;;;;;;;80.18;29.73;;;;;;;;;;5061621;28;20032;-79
2022/12/07 02:00:09;;;;;;;82.32;30.10;;;;;;;;;;5061750;28;20085;-79
2022/12/07 02:02:43;;;;;;;84.22;30.83;;;;;;;;;;5078670;28;20031;-80
2022/12/07 02:05:08;;;;;;;79.88;29.98;;;;;;;;;;5078019;28;20424;-80
2022/12/07 02:07:34;;;;;;;80.45;30.08;;;;;;;;;;5077968;28;20036;-79
2022/12/07 02:10:30;;;;;;;80.85;30.73;;;;;;;;;;5046039;28;20020;-79
2022/12/07 02:13:12;;;;;;;84.00;31.80;;;;;;;;;;5078127;28;20026;-80
2022/12/07 02:15:59;;;;;;;87.15;32.03;;;;;;;;;;5062019;28;20024;-79
2022/12/07 02:18:33;;;;;;;80.22;30.50;;;;;;;;;;5077602;28;20020;-79
2022/12/07 02:21:05;;;;;;;81.30;28.48;;;;;;;;;;5095988;28;20039;-80
2022/12/07 02:23:45;;;;;;;79.65;29.00;;;;;;;;;;5061758;28;20135;-80
2022/12/07 02:26:36;;;;;;;70.57;26.90;;;;;;;;;;5078077;28;20028;-80
2022/12/07 02:29:21;;;;;;;70.65;25.90;;;;;;;;;;5083305;28;20524;-79
2022/12/07 02:31:56;;;;;;;73.28;25.75;;;;;;;;;;5066055;28;20028;-79
2022/12/07 02:34:27;;;;;;;68.22;27.10;;;;;;;;;;5062020;28;20038;-78
2022/12/07 02:36:55;;;;;;;73.40;29.25;;;;;;;;;;5095573;28;20026;-80
2022/12/07 02:39:55;;;;;;;65.50;26.42;;;;;;;;;;5060780;28;20370;-79
2022/12/07 02:42:25;;;;;;;69.47;27.48;;;;;;;;;;5042838;28;20028;-81
2022/12/07 02:44:50;;;;;;;80.82;32.10;;;;;;;;;;5077693;28;20465;-80
2022/12/07 02:47:16;;;;;;;84.80;36.17;;;;;;;;;;5076911;28;20028;-79
2022/12/07 02:49:41;;;;;;;77.22;29.67;;;;;;;;;;5060657;28;20050;-80
2022/12/07 02:52:07;;;;;;;70.15;27.60;;;;;;;;;;5052716;28;20047;-80
2022/12/07 02:54:32;;;;;;;68.82;28.92;;;;;;;;;;5061113;28;20056;-80
2022/12/07 02:57:19;;;;;;;74.00;27.80;;;;;;;;;;5060470;28;20024;-79
2022/12/07 03:00:00;;;;;;;68.22;27.88;;;;;;;;;;5095215;28;20036;-81
2022/12/07 03:02:32;;;;;;;71.28;26.85;;;;;;;;;;5060306;28;20028;-81
2022/12/07 03:05:16;;;;;;;67.13;27.55;;;;;;;;;;5095129;28;20117;-80
2022/12/07 03:08:03;;;;;;;58.53;26.08;;;;;;;;;;5094834;28;20028;-80
2022/12/07 03:10:53;;;;;;;57.85;25.60;;;;;;;;;;5095087;28;20039;-80
2022/12/07 03:13:41;;;;;;;62.45;25.58;;;;;;;;;;5084559;28;20028;-80
2022/12/07 03:16:14;;;;;;;58.33;24.38;;;;;;;;;;5094766;28;20032;-79
2022/12/07 03:19:11;;;;;;;63.15;25.08;;;;;;;;;;5076789;28;20024;-80
2022/12/07 03:21:42;;;;;;;73.13;25.65;;;;;;;;;;5072757;28;20039;-79
2022/12/07 03:24:52;;;;;;;67.95;26.58;;;;;;;;;;5044390;28;20032;-79
2022/12/07 03:27:46;;;;;;;71.97;27.13;;;;;;;;;;5076529;28;20043;-80
2022/12/07 03:30:18;;;;;;;76.43;26.83;;;;;;;;;;5068634;28;20035;-79
2022/12/07 03:33:01;;;;;;;79.57;26.75;;;;;;;;;;5060237;28;20032;-79
2022/12/07 03:35:27;;;;;;;72.32;26.95;;;;;;;;;;5077963;28;20028;-79
2022/12/07 03:37:57;;;;;;;80.25;27.83;;;;;;;;;;5076663;28;20468;-80
2022/12/07 03:40:28;;;;;;;77.60;28.77;;;;;;;;;;5059653;28;20031;-80
2022/12/07 03:42:53;;;;;;;89.00;30.77;;;;;;;;;;5059857;28;20042;-80
2022/12/07 03:45:20;;;;;;;84.57;30.45;;;;;;;;;;5076158;28;20114;-80
2022/12/07 03:48:17;;;;;;;93.25;28.42;;;;;;;;;;5059536;28;20028;-79
2022/12/07 03:50:46;;;;;;;96.50;29.85;;;;;;;;;;5062318;28;20114;-79
2022/12/07 03:53:22;;;;;;;95.75;28.88;;;;;;;;;;5047135;28;20048;-80
2022/12/07 03:55:48;;;;;;;111.50;29.30;;;;;;;;;;5086817;28;20055;-79
2022/12/07 03:58:16;;;;;;;98.15;29.33;;;;;;;;;;5076851;28;20373;-80
2022/12/07 04:00:42;;;;;;;92.15;28.27;;;;;;;;;;5059332;28;20032;-79
2022/12/07 04:03:07;;;;;;;111.65;34.90;;;;;;;;;;5059469;28;20089;-80
2022/12/07 04:05:32;;;;;;;109.18;37.55;;;;;;;;;;5094187;28;20032;-79
2022/12/07 04:07:58;;;;;;;106.97;33.65;;;;;;;;;;5094444;28;20028;-79
2022/12/07 04:10:23;;;;;;;113.40;37.28;;;;;;;;;;5099547;28;21054;-79
2022/12/07 04:12:49;;;;;;;99.80;30.25;;;;;;;;;;5100898;28;20038;-79
2022/12/07 04:15:14;;;;;;;102.28;30.02;;;;;;;;;;5108039;28;20035;-79
2022/12/07 04:17:40;;;;;;;95.07;28.17;;;;;;;;;;5084070;28;20024;-80
2022/12/07 04:20:06;;;;;;;94.13;28.50;;;;;;;;;;5066185;28;20474;-79
2022/12/07 04:22:31;;;;;;;93.00;29.90;;;;;;;;;;5065901;28;20126;-80
2022/12/07 04:24:57;;;;;;;107.28;30.67;;;;;;;;;;5082875;28;20182;-79
2022/12/07 04:27:23;;;;;;;96.00;30.75;;;;;;;;;;5066193;28;20032;-80
2022/12/07 04:29:48;;;;;;;96.78;28.88;;;;;;;;;;5082463;28;20522;-80
2022/12/07 04:32:13;;;;;;;107.60;30.67;;;;;;;;;;5065975;28;20442;-80
2022/12/07 04:34:39;;;;;;;145.00;37.33;;;;;;;;;;5065905;28;20042;-81
2022/12/07 04:37:04;;;;;;;118.80;29.10;;;;;;;;;;5090193;28;20059;-80
2022/12/07 04:39:31;;;;;;;138.23;31.92;;;;;;;;;;5082939;28;20026;-79
2022/12/07 04:41:56;;;;;;;132.75;35.80;;;;;;;;;;5049022;28;20081;-79
2022/12/07 04:44:22;;;;;;;118.53;35.35;;;;;;;;;;5082395;28;20040;-79
2022/12/07 04:46:48;;;;;;;99.18;30.70;;;;;;;;;;5100582;28;20028;-79
2022/12/07 04:49:13;;;;;;;88.90;26.63;;;;;;;;;;5082349;28;20031;-79
2022/12/07 04:51:39;;;;;;;100.47;28.50;;;;;;;;;;5100573;28;20039;-79
2022/12/07 04:54:04;;;;;;;94.25;28.95;;;;;;;;;;5100525;28;20461;-80
2022/12/07 04:56:30;;;;;;;77.50;25.67;;;;;;;;;;5053843;28;20016;-80
2022/12/07 04:58:55;;;;;;;84.15;27.10;;;;;;;;;;5068691;28;20020;-79
2022/12/07 05:01:22;;;;;;;84.28;26.52;;;;;;;;;;5082292;28;20027;-80
2022/12/07 05:03:47;;;;;;;87.93;28.38;;;;;;;;;;5065579;28;20032;-80
2022/12/07 05:06:13;;;;;;;81.75;26.38;;;;;;;;;;5065378;28;20350;-79
2022/12/07 05:08:38;;;;;;;81.47;28.80;;;;;;;;;;5065605;28;20133;-81
2022/12/07 05:11:04;;;;;;;88.57;30.30;;;;;;;;;;5065715;28;20028;-82
2022/12/07 05:13:30;;;;;;;83.05;28.42;;;;;;;;;;5065366;28;20016;-82
2022/12/07 05:15:56;;;;;;;93.85;30.17;;;;;;;;;;5049201;28;20020;-81
2022/12/07 05:18:21;;;;;;;104.82;31.67;;;;;;;;;;5078109;28;20041;-82
2022/12/07 05:20:47;;;;;;;101.60;31.42;;;;;;;;;;5080163;28;20024;-82
2022/12/07 05:23:12;;;;;;;108.93;30.95;;;;;;;;;;5045882;28;20119;-82
2022/12/07 05:25:38;;;;;;;101.07;29.95;;;;;;;;;;5079091;28;20020;-82
2022/12/07 05:28:04;;;;;;;111.57;32.28;;;;;;;;;;5078658;28;20397;-82
2022/12/07 05:30:30;;;;;;;104.55;31.30;;;;;;;;;;5062354;28;20024;-81
2022/12/07 05:32:55;;;;;;;111.68;31.55;;;;;;;;;;5062120;28;20036;-82
2022/12/07 05:35:21;;;;;;;104.93;33.78;;;;;;;;;;5079072;28;20535;-82
2022/12/07 05:37:46;;;;;;;106.18;31.75;;;;;;;;;;5064740;28;20051;-81
2022/12/07 05:40:12;;;;;;;104.88;29.65;;;;;;;;;;5105359;28;20028;-80
2022/12/07 05:42:37;;;;;;;100.72;29.83;;;;;;;;;;5079152;28;20441;-83
2022/12/07 05:45:03;;;;;;;97.60;30.80;;;;;;;;;;5078678;28;20071;-82
2022/12/07 05:47:29;;;;;;;99.63;31.02;;;;;;;;;;5097637;28;20035;-81
2022/12/07 05:49:54;;;;;;;97.00;30.48;;;;;;;;;;5082858;28;20029;-80
2022/12/07 05:52:20;;;;;;;94.68;28.98;;;;;;;;;;5074470;28;20432;-82
2022/12/07 05:54:49;;;;;;;97.72;30.50;;;;;;;;;;5100257;28;20032;-81
2022/12/07 05:57:17;;;;;;;94.55;29.63;;;;;;;;;;5061919;28;20111;-82
2022/12/07 05:59:49;;;;;;;90.65;30.00;;;;;;;;;;5109556;28;20057;-83
2022/12/07 06:02:15;;;;;;;102.47;31.20;;;;;;;;;;5075731;28;20036;-81
2022/12/07 06:04:42;;;;;;;84.70;28.60;;;;;;;;;;5096908;28;20086;-80
2022/12/07 06:07:08;;;;;;;94.05;31.08;;;;;;;;;;5080678;28;20042;-79
2022/12/07 06:09:33;;;;;;;83.38;28.85;;;;;;;;;;5071630;28;20051;-82
2022/12/07 06:14:43;;;;;;;77.57;27.95;;;;;;;;;;5078162;28;20503;-80
2022/12/07 06:17:09;;;;;;;80.25;28.02;;;;;;;;;;5081678;28;20028;-81
2022/12/07 06:19:35;;;;;;;88.32;29.35;;;;;;;;;;5102068;28;20461;-81
2022/12/07 06:22:01;;;;;;;85.25;30.13;;;;;;;;;;5107040;28;20074;-82
2022/12/07 06:24:26;;;;;;;103.60;33.50;;;;;;;;;;5041874;28;20040;-81
2022/12/07 06:26:52;;;;;;;91.07;29.67;;;;;;;;;;5064596;28;20035;-81
2022/12/07 06:29:18;;;;;;;87.10;28.83;;;;;;;;;;5057255;28;20048;-81
2022/12/07 06:31:43;;;;;;;85.63;30.00;;;;;;;;;;5100146;28;20028;-78
2022/12/07 06:34:14;;;;;;;89.18;31.27;;;;;;;;;;5079836;28;20045;-81
2022/12/07 06:36:39;;;;;;;91.72;31.55;;;;;;;;;;5074449;28;20095;-80
2022/12/07 06:39:12;;;;;;;102.20;32.92;;;;;;;;;;5083954;28;20135;-82
2022/12/07 06:42:05;;;;;;;89.32;31.67;;;;;;;;;;5097279;28;20689;-79
2022/12/07 06:44:31;;;;;;;83.35;28.88;;;;;;;;;;5062886;28;20044;-80
2022/12/07 06:46:56;;;;;;;83.25;28.70;;;;;;;;;;5095986;28;20032;-80
2022/12/07 06:49:29;;;;;;;86.60;31.45;;;;;;;;;;5087878;28;20093;-79
2022/12/07 06:51:55;;;;;;;80.82;30.50;;;;;;;;;;5051679;28;20047;-78
2022/12/07 06:54:21;;;;;;;76.95;29.65;;;;;;;;;;5066913;28;20036;-80
2022/12/07 06:57:17;;;;;;;81.30;33.10;;;;;;;;;;5081258;28;20052;-81
2022/12/07 06:59:43;;;;;;;91.25;34.33;;;;;;;;;;5081803;28;20016;-82
2022/12/07 07:02:09;;;;;;;91.68;34.80;;;;;;;;;;5069993;28;20024;-79
2022/12/07 07:04:35;;;;;;;77.60;30.92;;;;;;;;;;5088705;28;20136;-80
2022/12/07 07:07:00;;;;;;;75.22;27.95;;;;;;;;;;5077732;28;20070;-82
2022/12/07 07:09:26;;;;;;;71.82;25.95;;;;;;;;;;5070443;28;20027;-77
2022/12/07 07:11:52;;;;;;;76.90;27.02;;;;;;;;;;5050239;28;20021;-79
2022/12/07 07:14:18;;;;;;;74.40;26.30;;;;;;;;;;5081679;28;20020;-79
2022/12/07 07:16:44;;;;;;;69.18;25.65;;;;;;;;;;5057286;28;20085;-79
2022/12/07 07:19:10;;;;;;;70.55;23.60;;;;;;;;;;5073212;28;20115;-79
2022/12/07 07:21:36;;;;;;;75.68;23.80;;;;;;;;;;5080551;28;20021;-80
2022/12/07 07:24:02;;;;;;;77.03;24.17;;;;;;;;;;5063910;28;20570;-80
2022/12/07 07:26:27;;;;;;;76.70;24.85;;;;;;;;;;5070038;28;20160;-79
2022/12/07 07:28:53;;;;;;;72.85;24.77;;;;;;;;;;5057002;28;20107;-79
2022/12/07 07:31:18;;;;;;;77.43;23.92;;;;;;;;;;5084330;28;20036;-81
2022/12/07 07:33:45;;;;;;;70.85;21.67;;;;;;;;;;5075759;28;20040;-80
2022/12/07 07:36:11;;;;;;;64.95;22.05;;;;;;;;;;5072570;28;20034;-79
2022/12/07 07:38:37;;;;;;;64.30;22.85;;;;;;;;;;5070437;28;20037;-79
2022/12/07 07:41:06;;;;;;;75.00;24.45;;;;;;;;;;5077669;28;20041;-78
2022/12/07 07:43:32;;;;;;;75.90;24.85;;;;;;;;;;5071227;28;20028;-80
2022/12/07 07:45:58;;;;;;;70.45;24.67;;;;;;;;;;5070690;28;20021;-81
2022/12/07 07:48:25;;;;;;;70.70;22.90;;;;;;;;;;5061021;28;20438;-80
2022/12/07 07:50:57;;;;;;;67.28;22.85;;;;;;;;;;5075722;28;20025;-78
2022/12/07 07:53:24;;;;;;;61.03;23.08;;;;;;;;;;5040104;28;20056;-84
2022/12/07 07:55:53;;;;;;;64.53;24.25;;;;;;;;;;5048994;28;20025;-79
2022/12/07 07:58:19;;;;;;;67.55;24.90;;;;;;;;;;5066213;28;20017;-80
2022/12/07 08:00:45;;;;;;;65.38;24.10;;;;;;;;;;5047452;28;20025;-83
2022/12/07 08:03:10;;;;;;;66.28;25.95;;;;;;;;;;5052529;28;20067;-80
2022/12/07 08:05:37;;;;;;;62.85;22.50;;;;;;;;;;5053514;28;20021;-79
2022/12/07 08:08:03;;;;;;;68.60;25.30;;;;;;;;;;5068190;28;20025;-79
2022/12/07 08:10:28;;;;;;;75.38;27.42;;;;;;;;;;5052641;28;20226;-79
2022/12/07 08:13:15;;;;;;;71.47;29.13;;;;;;;;;;5051011;28;20430;-78
2022/12/07 08:15:44;;;;;;;76.80;29.23;;;;;;;;;;5052127;28;20434;-79
2022/12/07 08:18:10;;;;;;;75.03;26.75;;;;;;;;;;5050144;28;20439;-79
2022/12/07 08:20:36;;;;;;;72.50;24.50;;;;;;;;;;5052755;28;20025;-79
2022/12/07 08:23:01;;;;;;;62.47;22.90;;;;;;;;;;5052012;28;20454;-79
2022/12/07 08:25:27;;;;;;;73.70;24.70;;;;;;;;;;5052323;28;20044;-79
2022/12/07 08:27:52;;;;;;;70.90;24.42;;;;;;;;;;5053344;28;20096;-80
2022/12/07 08:30:18;;;;;;;71.63;24.77;;;;;;;;;;5054096;28;20087;-81
2022/12/07 08:32:44;;;;;;;73.38;22.65;;;;;;;;;;5036403;28;20103;-80
2022/12/07 08:35:10;;;;;;;71.88;22.80;;;;;;;;;;5051980;28;20032;-78
2022/12/07 08:37:39;;;;;;;69.93;23.10;;;;;;;;;;5055526;28;20033;-80
2022/12/07 08:40:07;;;;;;;71.97;22.45;;;;;;;;;;5070746;28;20094;-80
2022/12/07 08:42:39;;;;;;;76.15;22.95;;;;;;;;;;5052119;28;20032;-80
2022/12/07 08:45:06;;;;;;;71.43;21.27;;;;;;;;;;5068992;28;20033;-81
2022/12/07 08:47:32;;;;;;;78.82;22.20;;;;;;;;;;5052417;28;20024;-78
2022/12/07 08:50:03;;;;;;;70.78;22.05;;;;;;;;;;5072527;28;20136;-81
2022/12/07 08:52:29;;;;;;;;;;;;;;;;;;5070787;28;20039;-78
2022/12/07 08:54:55;;;;;;;64.57;19.27;;;;;;;;;;5072533;28;20742;-81
2022/12/07 08:57:20;;;;;;;61.47;19.88;;;;;;;;;;5056534;28;20035;-79
2022/12/07 08:59:46;;;;;;;62.10;20.30;;;;;;;;;;5058690;28;20476;-81
2022/12/07 09:02:11;;;;;;;60.35;19.98;;;;;;;;;;5073420;28;20074;-81
2022/12/07 09:04:36;;;;;;;54.53;20.00;;;;;;;;;;5069634;28;20046;-80
2022/12/07 09:07:02;;;;;;;59.97;21.67;;;;;;;;;;5093531;28;20031;-81
2022/12/07 09:09:28;;;;;;;53.85;20.40;;;;;;;;;;5094600;28;20128;-80
2022/12/07 09:11:53;;;;;;;58.53;21.02;;;;;;;;;;5095664;28;20020;-82
2022/12/07 09:14:19;;;;;;;60.20;21.95;;;;;;;;;;5078963;28;20039;-80
2022/12/07 09:16:44;;;;;;;61.88;25.08;;;;;;;;;;5094862;28;20472;-81
2022/12/07 09:19:10;;;;;;;66.38;26.55;;;;;;;;;;5078066;28;20024;-78
2022/12/07 09:21:35;;;;;;;74.70;28.83;;;;;;;;;;5094513;28;20035;-77
2022/12/07 09:24:03;;;;;;;63.88;26.08;;;;;;;;;;5094270;28;20054;-78
2022/12/07 09:26:29;;;;;;;74.07;30.67;;;;;;;;;;5076950;28;20460;-78
2022/12/07 09:28:54;;;;;;;67.57;30.23;;;;;;;;;;5094111;28;20127;-78
2022/12/07 09:31:20;;;;;;;44.55;21.83;;;;;;;;;;5095716;28;20107;-80
2022/12/07 09:33:45;;;;;;;49.30;23.10;;;;;;;;;;5101286;28;20047;-79
2022/12/07 09:36:11;;;;;;;59.35;27.85;;;;;;;;;;5079446;28;20087;-79
2022/12/07 09:38:36;;;;;;;55.88;24.15;;;;;;;;;;5062363;28;20040;-77
2022/12/07 09:41:08;;;;;;;54.03;24.08;;;;;;;;;;5096685;28;20024;-79
2022/12/07 09:43:34;;;;;;;49.13;22.90;;;;;;;;;;5097181;28;20135;-78
2022/12/07 09:46:00;;;;;;;53.05;23.75;;;;;;;;;;5097290;28;20115;-78
2022/12/07 09:48:29;;;;;;;40.15;19.10;;;;;;;;;;5084561;28;20457;-79
2022/12/07 09:50:55;;;;;;;37.33;18.42;;;;;;;;;;5074735;28;22008;-77
2022/12/07 09:53:36;;;;;;;49.30;21.70;;;;;;;;;;5062910;28;20036;-78
2022/12/07 09:56:02;;;;;;;35.45;17.65;;;;;;;;;;5094463;28;20024;-80
2022/12/07 09:58:28;;;;;;;40.67;18.77;;;;;;;;;;5094957;28;20096;-79
2022/12/07 10:00:57;;;;;;;37.60;19.02;;;;;;;;;;5095281;28;20111;-81
2022/12/07 10:03:22;;;;;;;39.22;18.33;;;;;;;;;;5061229;28;20434;-80
2022/12/07 10:05:49;;;;;;;34.88;17.13;;;;;;;;;;5099317;28;20035;-79
2022/12/07 10:08:16;;;;;;;41.75;18.42;;;;;;;;;;5090765;28;20024;-80
2022/12/07 10:10:42;;;;;;;38.10;17.08;;;;;;;;;;5100009;28;20069;-79
2022/12/07 10:13:12;;;;;;;35.70;16.67;;;;;;;;;;5079115;28;20024;-79
2022/12/07 10:15:52;;;;;;;37.45;16.58;;;;;;;;;;5066819;28;20028;-79
2022/12/07 10:18:30;;;;;;;42.67;19.15;;;;;;;;;;5058228;28;20044;-80
2022/12/07 10:21:08;;;;;;;43.17;18.83;;;;;;;;;;5060925;28;20025;-81
2022/12/07 10:23:41;;;;;;;52.38;20.08;;;;;;;;;;5059349;28;20048;-78
2022/12/07 10:26:34;;;;;;;44.88;19.55;;;;;;;;;;5059135;28;20040;-79
2022/12/07 10:29:02;;;;;;;45.55;20.13;;;;;;;;;;5077037;28;20027;-79
2022/12/07 10:31:28;;;;;;;42.80;19.75;;;;;;;;;;5060029;28;20060;-78
2022/12/07 10:34:00;;;;;;;48.90;22.95;;;;;;;;;;5058727;28;20024;-77
2022/12/07 10:36:26;;;;;;;45.28;20.48;;;;;;;;;;5063488;28;20028;-81
2022/12/07 10:38:58;;;;;;;40.38;19.15;;;;;;;;;;5058470;28;20434;-77
2022/12/07 10:41:23;;;;;;;39.05;18.73;;;;;;;;;;5078212;28;20058;-78
2022/12/07 10:43:51;;;;;;;28.83;16.00;;;;;;;;;;5081125;28;20039;-78
2022/12/07 10:46:53;;;;;;;25.45;13.80;;;;;;;;;;5105483;28;20035;-79
2022/12/07 10:49:25;;;;;;;31.17;16.80;;;;;;;;;;5042368;28;20035;-79
2022/12/07 10:52:18;;;;;;;36.75;17.77;;;;;;;;;;5091175;28;20139;-78
2022/12/07 10:54:48;;;;;;;30.38;16.75;;;;;;;;;;5076733;28;20031;-78
2022/12/07 10:57:22;;;;;;;35.40;19.03;;;;;;;;;;5069204;28;20039;-77
2022/12/07 11:00:06;;;;;;;22.05;11.73;;;;;;;;;;5084028;28;20016;-78
2022/12/07 11:02:35;;;;;;;20.63;11.95;;;;;;;;;;5088377;28;20016;-77
2022/12/07 11:05:23;;;;;;;19.83;11.18;;;;;;;;;;5066850;28;20036;-76
2022/12/07 11:08:18;;;;;;;17.77;11.38;;;;;;;;;;5071224;28;20037;-78
2022/12/07 11:11:14;;;;;;;19.90;12.63;;;;;;;;;;5054795;28;20025;-77
2022/12/07 11:14:12;;;;;;;16.52;10.30;;;;;;;;;;5040450;28;20507;-81
2022/12/07 11:17:03;;;;;;;22.85;11.18;;;;;;;;;;5056388;28;20025;-80
2022/12/07 11:19:59;;;;;;;18.77;10.52;;;;;;;;;;5043799;28;20061;-77
2022/12/07 11:22:43;;;;;;;16.95;10.10;;;;;;;;;;5075833;28;20407;-76
2022/12/07 11:25:30;;;;;;;17.33;10.32;;;;;;;;;;5055346;28;20039;-79
2022/12/07 11:28:09;;;;;;;20.88;12.05;;;;;;;;;;5055718;28;20040;-80
2022/12/07 11:31:00;;;;;;;21.63;11.85;;;;;;;;;;5035905;28;20031;-79
2022/12/07 11:33:29;;;;;;;24.55;13.85;;;;;;;;;;5043362;28;20032;-87
2022/12/07 11:35:58;;;;;;;22.92;12.27;;;;;;;;;;5027333;28;20032;-88
2022/12/07 11:38:28;;;;;;;19.73;12.40;;;;;;;;;;5079342;28;20074;-88
2022/12/07 11:41:12;;;;;;;20.20;11.75;;;;;;;;;;5070285;28;20024;-88
2022/12/07 11:44:00;;;;;;;22.55;12.88;;;;;;;;;;5040759;28;20071;-89
2022/12/07 11:46:50;;;;;;;21.38;12.88;;;;;;;;;;5025240;28;20127;-88
2022/12/07 11:49:38;;;;;;;21.23;12.80;;;;;;;;;;5024611;28;20060;-89
2022/12/07 11:52:04;;;;;;;22.05;12.10;;;;;;;;;;5040873;28;20079;-88
2022/12/07 11:54:32;;;;;;;21.30;13.18;;;;;;;;;;5049882;28;20482;-88
2022/12/07 11:57:03;;;;;;;20.52;12.52;;;;;;;;;;5050586;28;20137;-90
2022/12/07 11:59:32;;;;;;;24.17;14.38;;;;;;;;;;5051887;28;20466;-88
2022/12/07 12:02:18;;;;;;;21.65;13.70;;;;;;;;;;5036978;28;20037;-88
2022/12/07 12:05:01;;;;;;;24.10;13.90;;;;;;;;;;5048815;28;20367;-89
2022/12/07 12:07:27;;;;;;;16.92;10.48;;;;;;;;;;5052228;28;20076;-90
2022/12/07 12:10:00;;;;;;;16.40;10.23;;;;;;;;;;5033579;28;20060;-87
2022/12/07 12:12:30;;;;;;;17.30;10.63;;;;;;;;;;5050586;28;20029;-87
2022/12/07 12:15:13;;;;;;;;;;;;;;;;;;5051036;28;20059;-87
2022/12/07 12:18:16;;;;;;;16.98;10.18;;;;;;;;;;5034873;28;20254;-87
2022/12/07 12:21:04;;;;;;;22.33;11.45;;;;;;;;;;5052178;28;20028;-88
2022/12/07 12:23:36;;;;;;;20.30;12.25;;;;;;;;;;5057405;28;20033;-87
2022/12/07 12:26:03;;;;;;;14.55;9.88;;;;;;;;;;5072089;28;20077;-87
2022/12/07 12:28:29;;;;;;;15.80;10.52;;;;;;;;;;5067124;28;20135;-87
2022/12/07 12:31:17;;;;;;;16.95;9.93;;;;;;;;;;5054778;28;20045;-87
2022/12/07 12:33:58;;;;;;;19.52;11.93;;;;;;;;;;5043294;28;20064;-87
2022/12/07 12:36:46;;;;;;;24.65;13.23;;;;;;;;;;5049587;28;20134;-80
2022/12/07 12:39:18;;;;;;;20.10;13.38;;;;;;;;;;5054690;28;20110;-80
2022/12/07 12:44:15;;;;;;;23.15;13.45;;;;;;;;;;5069124;28;20032;-80
2022/12/07 12:46:53;;;;;;;24.92;13.05;;;;;;;;;;5072901;28;20029;-80
2022/12/07 12:49:21;;;;;;;22.20;13.38;;;;;;;;;;5044863;28;20061;-82
2022/12/07 12:51:49;;;;;;;23.17;13.30;;;;;;;;;;5060790;28;20044;-80
2022/12/07 12:54:21;;;;;;;23.42;13.82;;;;;;;;;;5060547;28;20351;-78
2022/12/07 12:56:59;;;;;;;28.88;16.55;;;;;;;;;;5074902;28;20016;-79
2022/12/07 12:59:30;;;;;;;29.02;17.05;;;;;;;;;;5091157;28;20130;-79
2022/12/07 13:02:53;;;;;;;33.03;18.67;;;;;;;;;;5080769;28;20620;-80
2022/12/07 13:05:28;;;;;;;26.42;15.95;;;;;;;;;;5049186;28;20068;-80
2022/12/07 13:08:11;;;;;;;26.90;15.43;;;;;;;;;;5026935;28;20099;-80
2022/12/07 13:10:41;;;;;;;28.90;16.35;;;;;;;;;;5077324;28;20040;-80
2022/12/07 13:15:42;;;;;;;30.48;17.70;;;;;;;;;;5093502;28;20028;-79
2022/12/07 13:18:29;;;;;;;31.02;17.73;;;;;;;;;;5070176;28;20036;-79
2022/12/07 13:21:02;;;;;;;30.23;16.98;;;;;;;;;;5092143;28;20067;-78
2022/12/07 13:23:43;;;;;;;36.80;21.13;;;;;;;;;;5063153;28;20437;-80
2022/12/07 13:26:20;;;;;;;;;;;;;;;;;;5099014;28;20081;-79
2022/12/07 13:29:04;;;;;;;73.45;28.65;;;;;;;;;;5079229;28;19908;-80
2022/12/07 13:31:34;;;;;;;50.92;22.80;;;;;;;;;;5078166;28;20506;-79
2022/12/07 13:34:00;;;;;;;;;;;;;;;;;;5078070;28;20028;-79
2022/12/07 13:36:27;;;;;;;39.35;20.75;;;;;;;;;;5059320;28;20251;-78
2022/12/07 13:38:57;;;;;;;42.85;21.50;;;;;;;;;;5058458;28;20020;-79
2022/12/07 13:41:27;;;;;;;51.17;24.50;;;;;;;;;;5056463;28;20369;-79
2022/12/07 13:44:01;;;;;;;52.85;26.05;;;;;;;;;;5073402;28;20031;-78
2022/12/07 13:46:54;;;;;;;47.10;23.70;;;;;;;;;;5060486;28;20020;-79
2022/12/07 13:49:26;;;;;;;56.33;29.25;;;;;;;;;;5066987;28;20300;-78
2022/12/07 13:51:52;;;;;;;69.35;35.53;;;;;;;;;;5092220;28;20036;-78
2022/12/07 13:54:17;;;;;;;61.33;32.22;;;;;;;;;;5075352;28;20043;-78
2022/12/07 13:56:43;;;;;;;50.30;25.42;;;;;;;;;;5043959;28;20118;-78
2022/12/07 13:59:31;;;;;;;50.13;25.00;;;;;;;;;;5060376;28;20149;-79
2022/12/07 14:01:57;;;;;;;49.13;24.48;;;;;;;;;;5077378;28;20104;-79
2022/12/07 14:04:35;;;;;;;51.78;26.13;;;;;;;;;;5095935;28;20089;-79
2022/12/07 14:07:18;;;;;;;49.28;25.10;;;;;;;;;;5096351;28;20048;-79
2022/12/07 14:10:13;;;;;;;58.88;29.08;;;;;;;;;;5078364;28;20024;-79
2022/12/07 14:12:38;;;;;;;59.63;29.92;;;;;;;;;;5017975;28;20395;-79
2022/12/07 14:15:05;;;;;;;41.90;23.75;;;;;;;;;;5095445;28;20036;-79
2022/12/07 14:17:31;;;;;;;50.22;27.95;;;;;;;;;;5076877;28;20028;-78
2022/12/07 14:20:01;;;;;;;40.60;22.90;;;;;;;;;;5059513;28;20032;-78
2022/12/07 14:22:35;;;;;;;44.22;24.55;;;;;;;;;;5042494;28;20032;-78
2022/12/07 14:25:13;;;;;;;38.30;22.33;;;;;;;;;;5076131;28;20219;-79
2022/12/07 14:27:39;;;;;;;42.58;23.92;;;;;;;;;;5094811;28;20024;-79
2022/12/07 14:30:06;;;;;;;60.20;29.60;;;;;;;;;;5099166;28;20476;-79
2022/12/07 14:32:32;;;;;;;52.42;27.75;;;;;;;;;;5061174;28;20035;-78
2022/12/07 14:34:58;;;;;;;43.85;23.67;;;;;;;;;;5061075;28;20032;-79
2022/12/07 14:37:24;;;;;;;46.40;24.98;;;;;;;;;;5077130;28;20093;-80
2022/12/07 14:39:50;;;;;;;50.55;25.83;;;;;;;;;;5077493;28;20032;-79
2022/12/07 14:42:15;;;;;;;55.78;28.60;;;;;;;;;;5077342;28;20089;-80
2022/12/07 14:44:40;;;;;;;57.72;28.17;;;;;;;;;;5095376;28;20036;-80
2022/12/07 14:47:11;;;;;;;55.72;28.85;;;;;;;;;;5095284;28;20035;-81